Time;durP1;ratioP1;P1;durP2;ratioP2;P2;SDS_P1;SDS_P2;PMS_P1;PMS_P2;Temp;Humidity;BMP_temperature;BMP_pressure;BME280_temperature;BME280_humidity;BME280_pressure;Samples;Min_cycle;Max_cycle;Signal;HPM_P1;HPM_P2
2024/03/21 00:01:35;;;;;;;61.13;31.92;;;2.90;99.90;;;;;;4916895;29;20505;-80
2024/03/21 00:04:02;;;;;;;62.15;31.65;;;2.90;99.90;;;;;;4917912;29;20100;-79
2024/03/21 00:06:28;;;;;;;63.05;33.33;;;2.90;99.90;;;;;;4915978;29;20025;-80
2024/03/21 00:08:53;;;;;;;71.57;35.75;;;2.90;99.90;;;;;;4916294;29;20087;-81
2024/03/21 00:11:20;;;;;;;67.00;35.38;;;2.90;99.90;;;;;;4932472;29;20556;-80
2024/03/21 00:13:45;;;;;;;69.63;34.45;;;2.90;99.90;;;;;;4917755;29;20028;-80
2024/03/21 00:16:14;;;;;;;67.38;34.20;;;2.90;99.90;;;;;;4918196;29;20505;-79
2024/03/21 00:18:40;;;;;;;63.10;33.42;;;2.90;99.90;;;;;;4916534;29;20131;-80
2024/03/21 00:21:05;;;;;;;69.88;33.30;;;2.90;99.90;;;;;;4916726;29;20172;-80
2024/03/21 00:23:31;;;;;;;69.95;37.03;;;2.90;99.90;;;;;;4917598;29;20020;-80
2024/03/21 00:26:00;;;;;;;69.45;35.35;;;2.90;99.90;;;;;;4916538;29;20028;-79
2024/03/21 00:28:27;;;;;;;70.43;36.03;;;2.80;99.90;;;;;;4917694;29;20111;-79
2024/03/21 00:30:56;;;;;;;73.18;38.58;;;2.80;99.90;;;;;;4917834;29;20024;-78
2024/03/21 00:33:22;;;;;;;71.63;35.20;;;2.80;99.90;;;;;;4916457;29;20016;-79
2024/03/21 00:35:47;;;;;;;75.57;37.58;;;2.80;99.90;;;;;;4917743;29;20020;-79
2024/03/21 00:38:13;;;;;;;70.32;38.35;;;2.70;99.90;;;;;;4917320;29;20401;-79
2024/03/21 00:40:39;;;;;;;69.55;35.97;;;2.70;99.90;;;;;;4916325;29;20039;-80
2024/03/21 00:43:04;;;;;;;68.63;35.33;;;2.60;99.90;;;;;;4916406;29;20016;-79
2024/03/21 00:45:30;;;;;;;70.70;35.03;;;2.60;99.90;;;;;;4915439;29;20486;-79
2024/03/21 00:48:02;;;;;;;68.13;36.92;;;2.60;99.90;;;;;;4916243;29;20549;-79
2024/03/21 00:50:29;;;;;;;73.10;37.95;;;2.60;99.90;;;;;;4931773;29;20107;-79
2024/03/21 00:52:54;;;;;;;70.03;36.47;;;2.60;99.90;;;;;;4917469;29;20020;-79
2024/03/21 00:55:20;;;;;;;64.85;35.85;;;2.50;99.90;;;;;;4915809;29;20119;-79
2024/03/21 00:57:46;;;;;;;71.68;36.05;;;2.60;99.90;;;;;;4917514;29;20036;-79
2024/03/21 01:00:13;;;;;;;68.22;35.90;;;2.50;99.90;;;;;;4916951;29;20034;-80
2024/03/21 01:02:40;;;;;;;75.95;37.10;;;2.50;99.90;;;;;;4917635;29;20067;-79
2024/03/21 01:05:06;;;;;;;68.75;37.90;;;2.50;99.90;;;;;;4917046;29;20024;-79
2024/03/21 01:07:32;;;;;;;76.85;39.88;;;2.50;99.90;;;;;;4915632;29;20092;-79
2024/03/21 01:09:58;;;;;;;75.57;38.00;;;2.50;99.90;;;;;;4915212;29;20478;-79
2024/03/21 01:12:23;;;;;;;74.28;39.65;;;2.40;99.90;;;;;;4915890;29;20075;-79
2024/03/21 01:14:49;;;;;;;80.75;41.75;;;2.40;99.90;;;;;;4916853;29;20036;-79
2024/03/21 01:17:15;;;;;;;73.00;38.35;;;2.40;99.90;;;;;;4916119;29;20478;-79
2024/03/21 01:19:40;;;;;;;75.32;38.20;;;2.40;99.90;;;;;;4916828;29;20024;-79
2024/03/21 01:22:06;;;;;;;71.55;38.33;;;2.40;99.90;;;;;;4917081;29;20032;-79
2024/03/21 01:24:32;;;;;;;79.18;39.28;;;2.40;99.90;;;;;;4916590;29;20099;-79
2024/03/21 01:26:58;;;;;;;76.15;37.80;;;2.20;99.90;;;;;;4915687;29;20031;-79
2024/03/21 01:29:23;;;;;;;71.55;36.63;;;2.20;99.90;;;;;;4915306;29;20028;-79
2024/03/21 01:31:49;;;;;;;72.43;38.53;;;2.10;99.90;;;;;;4916963;29;20035;-79
2024/03/21 01:34:15;;;;;;;78.97;38.25;;;2.10;99.90;;;;;;4916164;29;20023;-79
2024/03/21 01:36:48;;;;;;;75.22;39.10;;;2.10;99.90;;;;;;4915361;29;20032;-79
2024/03/21 01:39:14;;;;;;;76.32;37.97;;;2.10;99.90;;;;;;4914913;29;20043;-79
2024/03/21 01:41:40;;;;;;;76.35;38.92;;;2.00;99.90;;;;;;4915234;29;20080;-79
2024/03/21 01:44:19;;;;;;;83.50;42.47;;;2.00;99.90;;;;;;4914664;29;20460;-79
2024/03/21 01:46:46;;;;;;;77.63;39.03;;;2.00;99.90;;;;;;4916289;29;20027;-79
2024/03/21 01:49:12;;;;;;;84.53;40.40;;;2.00;99.90;;;;;;4921283;29;20081;-78
2024/03/21 01:51:40;;;;;;;79.13;39.05;;;1.90;99.90;;;;;;4916138;29;20039;-79
2024/03/21 01:54:07;;;;;;;80.00;42.05;;;2.00;99.90;;;;;;4916129;29;20020;-79
2024/03/21 01:56:33;;;;;;;86.68;43.10;;;1.90;99.90;;;;;;4914785;29;20023;-78
2024/03/21 01:58:59;;;;;;;78.30;39.67;;;2.00;99.90;;;;;;4914096;29;20035;-79
2024/03/21 02:01:27;;;;;;;86.10;42.25;;;2.00;99.90;;;;;;4916130;29;20156;-79
2024/03/21 02:03:55;;;;;;;78.70;40.88;;;1.90;99.90;;;;;;4914591;29;20033;-79
2024/03/21 02:06:23;;;;;;;82.60;44.33;;;1.90;99.90;;;;;;4915159;29;20023;-79
2024/03/21 02:08:50;;;;;;;83.22;43.33;;;1.80;99.90;;;;;;4914584;29;20385;-79
2024/03/21 02:11:16;;;;;;;84.40;43.53;;;1.80;99.90;;;;;;4915095;29;20047;-79
2024/03/21 02:13:42;;;;;;;78.82;40.20;;;1.80;99.90;;;;;;4916389;29;20032;-79
2024/03/21 02:16:08;;;;;;;79.80;41.55;;;1.70;99.90;;;;;;4914383;29;20031;-80
2024/03/21 02:18:34;;;;;;;78.28;41.40;;;1.70;99.90;;;;;;4915010;29;20036;-80
2024/03/21 02:20:59;;;;;;;82.55;40.95;;;1.70;99.90;;;;;;4915817;29;20039;-80
2024/03/21 02:23:26;;;;;;;79.32;38.95;;;1.70;99.90;;;;;;4915177;29;20051;-80
2024/03/21 02:25:51;;;;;;;82.38;39.72;;;1.60;99.90;;;;;;4914399;29;20558;-79
2024/03/21 02:28:17;;;;;;;75.10;39.15;;;1.60;99.90;;;;;;4914831;29;20111;-79
2024/03/21 02:30:46;;;;;;;80.63;41.03;;;1.60;99.90;;;;;;4914446;29;20024;-79
2024/03/21 02:33:11;;;;;;;87.55;42.75;;;1.70;99.90;;;;;;4916262;29;20024;-79
2024/03/21 02:35:37;;;;;;;89.93;45.67;;;1.80;99.90;;;;;;4914594;29;20040;-79
2024/03/21 02:38:03;;;;;;;78.90;40.55;;;1.80;99.90;;;;;;4914924;29;20532;-79
2024/03/21 02:40:29;;;;;;;80.57;42.13;;;1.80;99.90;;;;;;4914562;29;20020;-79
2024/03/21 02:42:54;;;;;;;82.40;40.78;;;1.80;99.90;;;;;;4914900;29;20386;-79
2024/03/21 02:45:20;;;;;;;78.00;41.05;;;1.80;99.90;;;;;;4914207;29;20430;-79
2024/03/21 02:47:46;;;;;;;76.97;38.25;;;1.70;99.90;;;;;;4915987;29;20024;-79
2024/03/21 02:50:12;;;;;;;79.57;41.67;;;1.70;99.90;;;;;;4914382;29;20145;-79
2024/03/21 02:52:38;;;;;;;90.82;44.10;;;1.70;99.90;;;;;;4914753;29;20024;-79
2024/03/21 02:55:04;;;;;;;89.40;43.03;;;1.80;99.90;;;;;;4914143;29;20051;-80
2024/03/21 02:57:29;;;;;;;85.38;43.17;;;1.80;99.90;;;;;;4915719;29;20107;-80
2024/03/21 02:59:55;;;;;;;83.30;44.97;;;1.90;99.90;;;;;;4906407;29;20434;-80
2024/03/21 03:02:21;;;;;;;82.07;41.58;;;1.90;99.90;;;;;;4914677;29;20032;-80
2024/03/21 03:04:46;;;;;;;82.85;41.15;;;1.90;99.90;;;;;;4914004;29;20055;-81
2024/03/21 03:07:12;;;;;;;82.40;41.28;;;1.90;99.90;;;;;;4915813;29;20509;-80
2024/03/21 03:09:37;;;;;;;80.57;40.80;;;2.00;99.90;;;;;;4931511;29;20028;-79
2024/03/21 03:12:03;;;;;;;82.53;42.92;;;2.00;99.90;;;;;;4933788;29;20106;-79
2024/03/21 03:14:29;;;;;;;83.00;40.40;;;2.00;99.90;;;;;;4933324;29;20022;-79
2024/03/21 03:16:54;;;;;;;79.03;40.85;;;1.90;99.90;;;;;;4918889;29;20538;-79
2024/03/21 03:19:20;;;;;;;80.38;39.20;;;1.90;99.90;;;;;;4918906;29;20028;-79
2024/03/21 03:21:46;;;;;;;76.05;38.33;;;1.90;99.90;;;;;;4917913;29;20524;-79
2024/03/21 03:24:11;;;;;;;82.63;41.92;;;1.80;99.90;;;;;;4918624;29;20056;-79
2024/03/21 03:26:37;;;;;;;73.80;38.83;;;1.80;99.90;;;;;;4917854;29;20512;-79
2024/03/21 03:29:03;;;;;;;75.45;41.28;;;1.80;99.90;;;;;;4917040;29;20504;-79
2024/03/21 03:31:28;;;;;;;72.40;37.30;;;1.80;99.90;;;;;;4917845;29;20029;-79
2024/03/21 03:36:38;;;;;;;79.85;39.25;;;1.80;99.90;;;;;;4918725;29;20385;-78
2024/03/21 03:39:04;;;;;;;76.20;39.10;;;1.70;99.90;;;;;;4917141;29;20032;-78
2024/03/21 03:41:30;;;;;;;85.25;40.60;;;1.70;99.90;;;;;;4916894;29;20034;-78
2024/03/21 03:43:56;;;;;;;75.32;38.80;;;1.70;99.90;;;;;;4917143;29;20067;-78
2024/03/21 03:46:21;;;;;;;83.13;38.45;;;1.70;99.90;;;;;;4917409;29;20021;-78
2024/03/21 03:48:47;;;;;;;78.03;39.60;;;1.70;99.90;;;;;;4918000;29;20055;-78
2024/03/21 03:51:13;;;;;;;71.57;38.33;;;1.70;99.90;;;;;;4917134;29;20505;-78
2024/03/21 03:53:38;;;;;;;76.15;42.33;;;1.60;99.90;;;;;;4917209;29;20111;-78
2024/03/21 03:56:04;;;;;;;80.85;38.40;;;1.60;99.90;;;;;;4917927;29;20020;-78
2024/03/21 03:58:30;;;;;;;76.55;37.45;;;1.60;99.90;;;;;;4917060;29;20553;-78
2024/03/21 04:01:14;;;;;;;73.45;36.33;;;1.60;99.90;;;;;;4917885;29;20024;-79
2024/03/21 04:03:40;;;;;;;85.90;37.50;;;1.60;99.90;;;;;;4916764;29;20485;-80
2024/03/21 04:06:06;;;;;;;75.93;38.17;;;1.60;99.90;;;;;;4916858;29;20056;-80
2024/03/21 04:08:31;;;;;;;77.93;40.85;;;1.60;99.90;;;;;;4918401;29;20120;-80
2024/03/21 04:10:58;;;;;;;79.15;39.17;;;1.60;99.90;;;;;;4916047;29;20048;-80
2024/03/21 04:13:25;;;;;;;79.40;41.25;;;1.70;99.90;;;;;;4916870;29;20442;-81
2024/03/21 04:15:54;;;;;;;72.20;36.72;;;1.70;99.90;;;;;;4917385;29;20028;-80
2024/03/21 04:18:21;;;;;;;71.93;35.55;;;1.70;99.90;;;;;;4917948;29;20063;-80
2024/03/21 04:20:48;;;;;;;82.72;40.20;;;1.60;99.90;;;;;;4915247;29;20107;-80
2024/03/21 04:23:14;;;;;;;80.38;38.90;;;1.60;99.90;;;;;;4916132;29;20037;-79
2024/03/21 04:25:39;;;;;;;78.93;40.72;;;1.60;99.90;;;;;;4913411;29;20028;-80
2024/03/21 04:28:05;;;;;;;83.05;42.22;;;1.70;99.90;;;;;;4916577;29;20486;-79
2024/03/21 04:30:30;;;;;;;84.32;40.67;;;1.70;99.90;;;;;;4916438;29;20093;-79
2024/03/21 04:32:57;;;;;;;85.35;42.05;;;1.70;99.90;;;;;;4917889;29;20024;-79
2024/03/21 04:35:23;;;;;;;86.13;43.38;;;1.80;99.90;;;;;;4916181;29;20084;-79
2024/03/21 04:37:49;;;;;;;77.93;38.67;;;1.80;99.90;;;;;;4916106;29;20040;-80
2024/03/21 04:40:15;;;;;;;79.25;39.72;;;1.70;99.90;;;;;;4917349;29;20095;-80
2024/03/21 04:42:40;;;;;;;74.60;38.13;;;1.80;99.90;;;;;;4917475;29;20367;-79
2024/03/21 04:45:06;;;;;;;83.55;41.13;;;1.70;99.90;;;;;;4916939;29;20442;-80
2024/03/21 04:47:33;;;;;;;72.22;37.72;;;1.70;99.90;;;;;;4917694;29;20430;-79
2024/03/21 04:49:59;;;;;;;72.50;37.70;;;1.70;99.90;;;;;;4917270;29;20040;-79
2024/03/21 04:52:26;;;;;;;75.20;39.78;;;1.60;99.90;;;;;;4916085;29;20016;-79
2024/03/21 04:54:52;;;;;;;84.70;38.58;;;1.60;99.90;;;;;;4912736;29;20391;-79
2024/03/21 04:57:18;;;;;;;80.93;39.88;;;1.50;99.90;;;;;;4916160;29;20020;-80
2024/03/21 04:59:44;;;;;;;78.07;39.42;;;1.50;99.90;;;;;;4916864;29;20076;-79
2024/03/21 05:02:09;;;;;;;76.80;38.72;;;1.50;99.90;;;;;;4917387;29;20485;-79
2024/03/21 05:04:36;;;;;;;76.10;38.80;;;1.50;99.90;;;;;;4915767;29;20119;-80
2024/03/21 05:07:02;;;;;;;70.43;34.53;;;1.50;99.90;;;;;;4915980;29;20159;-79
2024/03/21 05:09:27;;;;;;;68.53;36.75;;;1.40;99.90;;;;;;4931192;29;20031;-80
2024/03/21 05:11:54;;;;;;;69.05;33.80;;;1.30;99.90;;;;;;4915869;29;20032;-79
2024/03/21 05:14:19;;;;;;;66.82;32.78;;;1.30;99.90;;;;;;4916066;29;20454;-79
2024/03/21 05:16:45;;;;;;;64.32;32.33;;;1.20;99.90;;;;;;4915742;29;20023;-79
2024/03/21 05:19:11;;;;;;;63.15;31.63;;;1.20;99.90;;;;;;4915015;29;20032;-79
2024/03/21 05:21:37;;;;;;;70.85;33.97;;;1.10;99.90;;;;;;4915514;29;20036;-79
2024/03/21 05:24:03;;;;;;;73.40;34.90;;;1.20;99.90;;;;;;4914835;29;20489;-79
2024/03/21 05:26:29;;;;;;;70.07;34.08;;;1.10;99.90;;;;;;4916553;29;20035;-80
2024/03/21 05:28:55;;;;;;;72.03;35.17;;;1.10;99.90;;;;;;4914485;29;20027;-80
2024/03/21 05:31:23;;;;;;;69.28;36.88;;;1.20;99.90;;;;;;4910460;29;20036;-80
2024/03/21 05:33:50;;;;;;;76.75;39.95;;;1.20;99.90;;;;;;4905950;29;20359;-78
2024/03/21 05:36:16;;;;;;;73.28;37.80;;;1.20;99.90;;;;;;4898912;29;20402;-80
2024/03/21 05:38:45;;;;;;;81.00;38.63;;;1.30;99.90;;;;;;4914047;29;20443;-79
2024/03/21 05:41:11;;;;;;;71.82;38.63;;;1.30;99.90;;;;;;4919690;29;20040;-79
2024/03/21 05:43:37;;;;;;;72.32;37.30;;;1.30;99.90;;;;;;4914756;29;20454;-79
2024/03/21 05:46:04;;;;;;;78.55;38.35;;;1.40;99.90;;;;;;4913006;29;20055;-80
2024/03/21 05:48:31;;;;;;;89.75;40.92;;;1.60;99.90;;;;;;4914598;29;20493;-80
2024/03/21 05:50:57;;;;;;;85.00;42.95;;;1.80;99.90;;;;;;4916046;29;20482;-79
2024/03/21 05:53:22;;;;;;;85.03;42.78;;;1.90;99.90;;;;;;4912682;29;20024;-80
2024/03/21 05:55:59;;;;;;;87.75;44.78;;;2.10;99.90;;;;;;4915819;29;20131;-80
2024/03/21 05:58:25;;;;;;;85.25;42.13;;;2.20;99.90;;;;;;4915669;29;20115;-80
2024/03/21 06:01:04;;;;;;;90.95;44.65;;;2.40;99.90;;;;;;4915857;29;20102;-79
2024/03/21 06:03:36;;;;;;;87.45;44.13;;;2.60;99.90;;;;;;4909415;29;20415;-78
2024/03/21 06:06:02;;;;;;;78.05;40.05;;;2.80;99.90;;;;;;4912424;29;20035;-83
2024/03/21 06:08:28;;;;;;;81.72;40.88;;;3.00;99.90;;;;;;4910903;29;20021;-83
2024/03/21 06:10:54;;;;;;;84.28;43.53;;;3.10;99.90;;;;;;4909597;29;20028;-81
2024/03/21 06:13:20;;;;;;;83.18;41.25;;;3.20;99.90;;;;;;4906008;29;20534;-83
2024/03/21 06:15:46;;;;;;;83.88;41.42;;;3.20;99.90;;;;;;4916363;29;20032;-84
2024/03/21 06:18:12;;;;;;;86.30;44.22;;;3.30;99.90;;;;;;4915829;29;20542;-83
2024/03/21 06:20:38;;;;;;;86.53;42.72;;;3.40;99.90;;;;;;4912344;29;20052;-83
2024/03/21 06:23:05;;;;;;;84.88;43.10;;;3.50;99.90;;;;;;4912072;29;20371;-84
2024/03/21 06:25:31;;;;;;;87.95;43.30;;;3.50;99.90;;;;;;4926115;29;20024;-83
2024/03/21 06:27:56;;;;;;;83.40;44.50;;;3.60;99.90;;;;;;4914419;29;20083;-85
2024/03/21 06:30:22;;;;;;;76.97;41.13;;;3.70;99.90;;;;;;4915397;29;20382;-84
2024/03/21 06:32:48;;;;;;;79.60;42.42;;;3.90;99.90;;;;;;4914182;29;20016;-85
2024/03/21 06:35:14;;;;;;;80.22;43.10;;;4.20;99.90;;;;;;4916930;29;20032;-83
2024/03/21 06:37:40;;;;;;;82.75;40.30;;;4.40;99.90;;;;;;4913556;29;20077;-83
2024/03/21 06:40:08;;;;;;;74.55;40.53;;;4.60;99.90;;;;;;4919392;29;20052;-82
2024/03/21 06:42:33;;;;;;;75.47;38.55;;;4.80;99.90;;;;;;4913864;29;20020;-81
2024/03/21 06:45:00;;;;;;;79.63;41.25;;;5.00;99.90;;;;;;4917500;29;20107;-82
2024/03/21 06:47:26;;;;;;;73.60;39.72;;;5.10;99.90;;;;;;4916933;29;20031;-82
2024/03/21 06:49:58;;;;;;;72.75;39.28;;;5.40;99.90;;;;;;4915449;29;20048;-82
2024/03/21 06:52:24;;;;;;;77.18;40.05;;;5.50;99.90;;;;;;4914933;29;20476;-81
2024/03/21 06:54:50;;;;;;;77.85;39.67;;;5.50;99.90;;;;;;4917779;29;20036;-81
2024/03/21 06:57:16;;;;;;;76.13;40.45;;;5.70;99.90;;;;;;4917230;29;20470;-81
2024/03/21 06:59:41;;;;;;;78.50;40.45;;;5.80;99.90;;;;;;4916149;29;20438;-83
2024/03/21 07:02:08;;;;;;;76.43;39.45;;;5.80;99.90;;;;;;4930962;29;20032;-81
2024/03/21 07:04:34;;;;;;;80.43;40.97;;;5.90;99.90;;;;;;4917473;29;20020;-79
2024/03/21 07:07:00;;;;;;;71.65;40.47;;;6.00;99.90;;;;;;4917688;29;20028;-80
2024/03/21 07:09:26;;;;;;;78.78;40.60;;;6.00;99.90;;;;;;4915124;29;20520;-82
2024/03/21 07:11:51;;;;;;;75.50;40.38;;;6.10;97.90;;;;;;4918948;29;20031;-81
2024/03/21 07:14:17;;;;;;;74.32;41.70;;;6.30;95.80;;;;;;4918014;29;20083;-82
2024/03/21 07:16:43;;;;;;;67.80;38.80;;;6.30;94.00;;;;;;4917285;29;20033;-81
2024/03/21 07:19:09;;;;;;;69.38;38.42;;;6.40;92.80;;;;;;4915201;29;20409;-82
2024/03/21 07:21:35;;;;;;;72.05;37.78;;;6.50;91.80;;;;;;4906728;29;20028;-82
2024/03/21 07:24:01;;;;;;;75.03;40.20;;;6.60;92.50;;;;;;4915284;29;20024;-84
2024/03/21 07:26:28;;;;;;;71.20;38.88;;;6.70;91.20;;;;;;4914982;29;20052;-83
2024/03/21 07:28:54;;;;;;;74.22;41.25;;;6.80;90.00;;;;;;4914929;29;20058;-85
2024/03/21 07:31:20;;;;;;;76.07;40.88;;;6.90;87.60;;;;;;4931529;29;20534;-84
2024/03/21 07:33:51;;;;;;;76.15;41.58;;;7.10;86.60;;;;;;4915046;29;20028;-84
2024/03/21 07:36:17;;;;;;;73.68;41.85;;;7.20;84.90;;;;;;4927279;29;20123;-84
2024/03/21 07:38:43;;;;;;;70.93;39.85;;;7.20;81.40;;;;;;4916888;29;20040;-84
2024/03/21 07:41:08;;;;;;;72.18;39.95;;;7.30;80.30;;;;;;4917360;29;20068;-85
2024/03/21 07:43:34;;;;;;;74.30;40.28;;;7.40;79.60;;;;;;4918625;29;20066;-85
2024/03/21 07:46:00;;;;;;;77.05;39.72;;;7.40;78.80;;;;;;4918760;29;20156;-85
2024/03/21 07:48:25;;;;;;;79.57;42.95;;;7.50;78.70;;;;;;4916755;29;20510;-84
2024/03/21 07:50:51;;;;;;;71.47;39.83;;;7.50;78.20;;;;;;4918213;29;20040;-84
2024/03/21 07:53:16;;;;;;;72.97;41.17;;;7.60;77.80;;;;;;4917818;29;20032;-85
2024/03/21 07:55:45;;;;;;;76.47;41.00;;;7.70;78.40;;;;;;4916918;29;20537;-85
2024/03/21 07:58:11;;;;;;;70.45;40.38;;;7.70;77.10;;;;;;4916099;29;20047;-85
2024/03/21 08:00:37;;;;;;;68.07;40.70;;;7.80;77.10;;;;;;4916444;29;20039;-84
2024/03/21 08:03:02;;;;;;;72.82;41.75;;;7.80;77.10;;;;;;4933250;29;20043;-85
2024/03/21 08:05:28;;;;;;;79.32;42.60;;;7.80;75.90;;;;;;4919321;29;20035;-85
2024/03/21 08:07:54;;;;;;;87.45;46.20;;;7.90;76.00;;;;;;4918952;29;20446;-86
2024/03/21 08:10:19;;;;;;;82.97;44.40;;;8.00;75.50;;;;;;4917199;29;20048;-85
2024/03/21 08:12:45;;;;;;;81.80;46.50;;;8.10;75.40;;;;;;4917336;29;20103;-86
2024/03/21 08:15:11;;;;;;;129.02;74.70;;;8.20;73.40;;;;;;4918832;29;20024;-85
2024/03/21 08:17:36;;;;;;;128.73;72.43;;;8.30;73.70;;;;;;4916674;29;20040;-85
2024/03/21 08:20:02;;;;;;;88.97;50.13;;;8.40;73.10;;;;;;4915252;29;20475;-84
2024/03/21 08:22:28;;;;;;;78.43;44.58;;;8.40;72.00;;;;;;4918074;29;20099;-83
2024/03/21 08:24:54;;;;;;;79.60;44.00;;;8.50;72.40;;;;;;4916251;29;20059;-84
2024/03/21 08:27:19;;;;;;;76.22;46.00;;;8.50;70.20;;;;;;4917792;29;20039;-84
2024/03/21 08:29:46;;;;;;;77.40;41.67;;;8.60;69.10;;;;;;4917689;29;20024;-84
2024/03/21 08:32:13;;;;;;;80.97;44.10;;;8.70;69.50;;;;;;4917114;29;20386;-85
2024/03/21 08:34:42;;;;;;;75.32;42.95;;;8.80;69.90;;;;;;4917182;29;20016;-85
2024/03/21 08:37:07;;;;;;;81.25;43.08;;;8.90;68.80;;;;;;4917199;29;20127;-85
2024/03/21 08:39:33;;;;;;;80.85;46.03;;;9.00;67.80;;;;;;4918066;29;20103;-86
2024/03/21 08:41:59;;;;;;;84.75;46.20;;;9.10;67.20;;;;;;4916049;29;20032;-85
2024/03/21 08:44:24;;;;;;;75.13;42.20;;;9.20;67.00;;;;;;4917576;29;20047;-83
2024/03/21 08:46:50;;;;;;;75.85;42.40;;;9.10;65.90;;;;;;4917149;29;20474;-82
2024/03/21 08:49:15;;;;;;;74.35;43.25;;;9.20;66.00;;;;;;4915822;29;20055;-83
2024/03/21 08:51:41;;;;;;;78.68;44.28;;;9.30;66.60;;;;;;4917248;29;20371;-83
2024/03/21 08:54:08;;;;;;;73.43;40.67;;;9.40;65.60;;;;;;4916989;29;20036;-83
2024/03/21 08:56:34;;;;;;;69.93;38.40;;;9.40;64.80;;;;;;4915738;29;20079;-83
2024/03/21 08:59:00;;;;;;;69.95;38.85;;;9.40;63.20;;;;;;4915421;29;20032;-81
2024/03/21 09:01:26;;;;;;;74.15;38.38;;;9.60;63.50;;;;;;4915121;29;20031;-83
2024/03/21 09:03:52;;;;;;;73.28;36.85;;;9.70;63.40;;;;;;4915118;29;20024;-84
2024/03/21 09:06:18;;;;;;;70.15;37.25;;;9.70;62.70;;;;;;4917706;29;20115;-84
2024/03/21 09:08:44;;;;;;;61.58;35.40;;;9.70;62.60;;;;;;4913800;29;20034;-84
2024/03/21 09:11:10;;;;;;;64.68;37.13;;;9.90;63.10;;;;;;4913844;29;20024;-84
2024/03/21 09:13:36;;;;;;;64.07;36.35;;;10.00;62.40;;;;;;4914156;29;20028;-84
2024/03/21 09:16:02;;;;;;;63.35;34.40;;;10.20;62.10;;;;;;4913607;29;20028;-84
2024/03/21 09:18:27;;;;;;;66.00;36.50;;;10.30;61.70;;;;;;4913908;29;20036;-84
2024/03/21 09:20:55;;;;;;;59.63;35.38;;;10.40;60.40;;;;;;4924081;29;20020;-84
2024/03/21 09:23:22;;;;;;;59.90;34.55;;;10.50;60.60;;;;;;4915154;29;20682;-84
2024/03/21 09:25:48;;;;;;;64.00;36.22;;;10.60;61.10;;;;;;4929430;29;20094;-84
2024/03/21 09:28:14;;;;;;;67.57;36.50;;;10.60;60.20;;;;;;4913756;29;20055;-84
2024/03/21 09:30:44;;;;;;;67.88;36.28;;;10.70;60.70;;;;;;4913136;29;20032;-84
2024/03/21 09:33:11;;;;;;;66.13;36.50;;;10.70;59.90;;;;;;4914939;29;20020;-84
2024/03/21 09:35:37;;;;;;;73.82;40.08;;;10.70;59.80;;;;;;4913221;29;20028;-84
2024/03/21 09:38:03;;;;;;;67.20;37.65;;;10.80;60.70;;;;;;4915725;29;20110;-84
2024/03/21 09:40:29;;;;;;;67.22;36.75;;;10.80;59.70;;;;;;4915109;29;20513;-84
2024/03/21 09:42:56;;;;;;;59.72;36.28;;;10.80;59.50;;;;;;4916809;29;20038;-84
2024/03/21 09:45:24;;;;;;;53.92;31.92;;;10.90;58.70;;;;;;4916281;29;20529;-84
2024/03/21 09:47:50;;;;;;;57.95;31.52;;;11.00;57.70;;;;;;4916618;29;20597;-84
2024/03/21 09:50:18;;;;;;;54.55;29.92;;;11.00;57.00;;;;;;4915937;29;20048;-84
2024/03/21 09:52:44;;;;;;;52.88;31.42;;;11.00;56.00;;;;;;4915232;29;20027;-84
2024/03/21 09:55:15;;;;;;;60.17;32.78;;;11.00;55.90;;;;;;4915164;29;20016;-84
2024/03/21 09:57:41;;;;;;;59.30;30.80;;;11.20;56.60;;;;;;4915106;29;20036;-84
2024/03/21 10:00:16;;;;;;;48.30;27.45;;;11.20;56.90;;;;;;4916239;29;20055;-84
2024/03/21 10:02:44;;;;;;;69.93;37.85;;;11.30;55.30;;;;;;4915102;29;20035;-84
2024/03/21 10:05:23;;;;;;;51.85;29.27;;;11.40;54.60;;;;;;4916142;29;20071;-84
2024/03/21 10:07:49;;;;;;;56.55;29.52;;;11.40;54.40;;;;;;4916190;29;20016;-84
2024/03/21 10:10:15;;;;;;;47.03;27.38;;;11.50;56.40;;;;;;4916086;29;20109;-84
2024/03/21 10:12:41;;;;;;;68.15;37.92;;;11.60;55.20;;;;;;4916229;29;20095;-84
2024/03/21 10:15:13;;;;;;;45.72;26.38;;;11.60;53.20;;;;;;4915978;29;20036;-84
2024/03/21 10:17:41;;;;;;;61.58;34.42;;;11.70;52.90;;;;;;4915106;29;20119;-84
2024/03/21 10:20:09;;;;;;;71.30;40.17;;;11.80;52.30;;;;;;4909782;29;20487;-84
2024/03/21 10:22:34;;;;;;;78.05;40.15;;;11.90;52.40;;;;;;4918769;29;20505;-85
2024/03/21 10:25:04;;;;;;;41.65;24.85;;;12.00;50.90;;;;;;4919875;29;20020;-84
2024/03/21 10:27:32;;;;;;;38.53;21.15;;;12.00;49.60;;;;;;4918683;29;20027;-83
2024/03/21 10:29:58;;;;;;;39.10;22.75;;;12.00;48.50;;;;;;4934482;29;20032;-84
2024/03/21 10:32:25;;;;;;;33.85;21.50;;;12.00;48.00;;;;;;4918547;29;20035;-84
2024/03/21 10:34:52;;;;;;;35.20;19.90;;;12.20;47.50;;;;;;4918425;29;20052;-84
2024/03/21 10:37:19;;;;;;;95.07;50.78;;;12.20;47.10;;;;;;4919762;29;20020;-83
2024/03/21 10:39:46;;;;;;;55.40;31.77;;;12.40;47.10;;;;;;4918391;29;20530;-84
2024/03/21 10:42:27;;;;;;;32.60;20.55;;;12.50;46.60;;;;;;4918574;29;20030;-84
2024/03/21 10:45:04;;;;;;;43.42;22.98;;;12.60;44.60;;;;;;4919393;29;20474;-83
2024/03/21 10:47:30;;;;;;;31.70;19.17;;;12.60;45.20;;;;;;4919507;29;20021;-83
2024/03/21 10:49:56;;;;;;;29.10;16.67;;;12.70;45.40;;;;;;4916786;29;20071;-83
2024/03/21 10:52:22;;;;;;;79.35;39.60;;;12.70;45.80;;;;;;4918218;29;20072;-84
2024/03/21 10:54:52;;;;;;;25.35;15.50;;;12.60;44.30;;;;;;4918916;29;20442;-84
2024/03/21 10:57:21;;;;;;;30.65;16.83;;;12.60;41.60;;;;;;4919369;29;20071;-83
2024/03/21 11:00:10;;;;;;;21.52;14.35;;;12.70;40.70;;;;;;4919021;29;20371;-83
2024/03/21 11:02:36;;;;;;;24.00;14.55;;;12.70;39.20;;;;;;4919480;29;20028;-83
2024/03/21 11:05:12;;;;;;;23.02;14.18;;;12.80;38.70;;;;;;4917887;29;20091;-84
2024/03/21 11:07:39;;;;;;;69.53;33.67;;;12.90;38.30;;;;;;4916802;29;20396;-84
2024/03/21 11:10:08;;;;;;;30.02;16.20;;;13.00;40.20;;;;;;4911624;29;20109;-83
2024/03/21 11:12:34;;;;;;;30.83;18.30;;;13.00;39.00;;;;;;4917613;29;20030;-84
2024/03/21 11:15:00;;;;;;;30.17;17.70;;;13.00;40.20;;;;;;4917571;29;20053;-84
2024/03/21 11:17:26;;;;;;;22.60;14.30;;;13.00;39.40;;;;;;4917837;29;20035;-83
2024/03/21 11:19:52;;;;;;;24.98;15.30;;;13.00;38.90;;;;;;4917469;29;20035;-84
2024/03/21 11:22:18;;;;;;;35.38;19.65;;;12.90;37.60;;;;;;4919045;29;20028;-83
2024/03/21 11:24:45;;;;;;;29.25;17.48;;;12.90;38.30;;;;;;4918833;29;20164;-84
2024/03/21 11:27:17;;;;;;;27.00;15.82;;;12.90;39.10;;;;;;4917226;29;21170;-84
2024/03/21 11:29:43;;;;;;;28.17;14.50;;;13.00;39.60;;;;;;4917004;29;20107;-84
2024/03/21 11:32:08;;;;;;;134.63;78.55;;;13.10;38.50;;;;;;4918707;29;20144;-84
2024/03/21 11:34:39;;;;;;;84.18;48.58;;;13.10;36.90;;;;;;4916628;29;20032;-84
2024/03/21 11:37:12;;;;;;;24.25;15.35;;;13.20;38.50;;;;;;4910006;29;20039;-84
2024/03/21 11:39:39;;;;;;;24.65;15.20;;;13.30;38.50;;;;;;4918598;29;20038;-84
2024/03/21 11:42:09;;;;;;;27.52;16.10;;;13.40;38.00;;;;;;4916209;29;20371;-84
2024/03/21 11:44:37;;;;;;;27.05;15.68;;;13.40;37.60;;;;;;4913500;29;20032;-83
2024/03/21 11:47:05;;;;;;;42.28;21.73;;;13.40;38.10;;;;;;4914831;29;20028;-84
2024/03/21 11:49:30;;;;;;;31.00;18.45;;;13.50;39.20;;;;;;4911018;29;20048;-83
2024/03/21 11:51:56;;;;;;;23.40;14.60;;;13.60;39.20;;;;;;4916880;29;20028;-84
2024/03/21 11:54:22;;;;;;;23.13;13.85;;;13.50;37.60;;;;;;4918280;29;20048;-84
2024/03/21 11:56:47;;;;;;;27.33;15.02;;;13.60;37.30;;;;;;4915338;29;20040;-84
2024/03/21 11:59:13;;;;;;;30.00;15.82;;;13.70;40.00;;;;;;4901411;29;20123;-84
2024/03/21 12:01:39;;;;;;;25.60;13.80;;;13.70;41.90;;;;;;4918088;29;20458;-84
2024/03/21 12:04:05;;;;;;;21.63;13.93;;;13.80;40.30;;;;;;4917955;29;20517;-84
2024/03/21 12:06:30;;;;;;;20.45;13.40;;;13.80;38.80;;;;;;4918296;29;20012;-84
2024/03/21 12:08:56;;;;;;;28.15;15.05;;;13.80;39.70;;;;;;4912080;29;20028;-84
2024/03/21 12:11:23;;;;;;;27.58;16.77;;;13.90;37.70;;;;;;4916697;29;20028;-84
2024/03/21 12:13:49;;;;;;;23.25;14.73;;;14.00;38.20;;;;;;4917420;29;20482;-84
2024/03/21 12:16:16;;;;;;;30.17;16.42;;;14.10;38.20;;;;;;4916675;29;20066;-84
2024/03/21 12:18:43;;;;;;;22.27;13.50;;;14.10;38.30;;;;;;4916730;29;20036;-83
2024/03/21 12:21:15;;;;;;;27.25;16.38;;;14.20;37.90;;;;;;4913372;29;20023;-83
2024/03/21 12:23:41;;;;;;;22.42;13.45;;;14.20;37.30;;;;;;4917540;29;20026;-83
2024/03/21 12:26:10;;;;;;;21.23;13.35;;;14.20;36.90;;;;;;4917715;29;20382;-83
2024/03/21 12:28:36;;;;;;;29.60;15.02;;;14.00;36.30;;;;;;4916337;29;20051;-84
2024/03/21 12:31:01;;;;;;;19.23;13.30;;;14.00;36.50;;;;;;4917717;29;20070;-85
2024/03/21 12:33:28;;;;;;;18.85;11.65;;;13.90;36.00;;;;;;4915469;29;20035;-84